Time;durP1;ratioP1;P1;durP2;ratioP2;P2;SDS_P1;SDS_P2;PMS_P1;PMS_P2;Temp;Humidity;BMP_temperature;BMP_pressure;BME280_temperature;BME280_humidity;BME280_pressure;Samples;Min_cycle;Max_cycle;Signal;HPM_P1;HPM_P2
2022/07/11 00:02:05;;;;;;;2.38;2.10;;;;;;;;;;5110268;28;20107;-71
2022/07/11 00:04:31;;;;;;;4.68;2.53;;;;;;;;;;5103469;28;20028;-72
2022/07/11 00:06:58;;;;;;;5.03;2.22;;;;;;;;;;5107761;28;20024;-70
2022/07/11 00:09:24;;;;;;;2.55;2.13;;;;;;;;;;5114688;28;20032;-70
2022/07/11 00:11:50;;;;;;;3.88;2.28;;;;;;;;;;5116624;28;20104;-73
2022/07/11 00:14:17;;;;;;;3.20;2.33;;;;;;;;;;5116399;28;20043;-71
2022/07/11 00:16:43;;;;;;;3.42;2.13;;;;;;;;;;5116592;28;20042;-71
2022/07/11 00:19:09;;;;;;;4.25;2.00;;;;;;;;;;5098338;28;20392;-74
2022/07/11 00:21:36;;;;;;;2.40;2.15;;;;;;;;;;5116405;28;20058;-72
2022/07/11 00:24:03;;;;;;;3.70;2.10;;;;;;;;;;5116451;28;20034;-72
2022/07/11 00:26:29;;;;;;;3.08;2.60;;;;;;;;;;5116406;28;20023;-72
2022/07/11 00:28:55;;;;;;;3.13;2.50;;;;;;;;;;5116377;28;20022;-73
2022/07/11 00:31:21;;;;;;;2.25;1.75;;;;;;;;;;5116262;28;20462;-72
2022/07/11 00:33:48;;;;;;;5.15;2.30;;;;;;;;;;5116038;28;20027;-72
2022/07/11 00:36:14;;;;;;;3.00;2.08;;;;;;;;;;5116220;28;20093;-72
2022/07/11 00:38:40;;;;;;;3.78;2.53;;;;;;;;;;5116200;28;20047;-71
2022/07/11 00:41:06;;;;;;;2.95;2.13;;;;;;;;;;5116184;28;20024;-71
2022/07/11 00:43:32;;;;;;;2.92;2.40;;;;;;;;;;5116097;28;20049;-72
2022/07/11 00:45:58;;;;;;;4.28;2.67;;;;;;;;;;5114870;28;20483;-71
2022/07/11 00:48:24;;;;;;;3.88;2.20;;;;;;;;;;5115995;28;20662;-72
2022/07/11 00:50:51;;;;;;;4.65;2.17;;;;;;;;;;5116030;28;20538;-72
2022/07/11 00:53:18;;;;;;;3.85;2.17;;;;;;;;;;5115790;28;20055;-71
2022/07/11 00:55:44;;;;;;;3.88;2.38;;;;;;;;;;5115781;28;20221;-71
2022/07/11 00:58:10;;;;;;;4.32;2.75;;;;;;;;;;5115931;28;20012;-71
2022/07/11 01:00:36;;;;;;;2.95;2.10;;;;;;;;;;5115740;28;20028;-71
2022/07/11 01:03:03;;;;;;;4.50;2.30;;;;;;;;;;5096168;28;20084;-70
2022/07/11 01:05:29;;;;;;;4.60;2.70;;;;;;;;;;5115587;28;20099;-70
2022/07/11 01:07:55;;;;;;;3.58;2.45;;;;;;;;;;5115577;28;20019;-70
2022/07/11 01:10:21;;;;;;;7.57;2.58;;;;;;;;;;5115561;28;20378;-71
2022/07/11 01:12:48;;;;;;;3.78;2.33;;;;;;;;;;5115393;28;20072;-70
2022/07/11 01:15:17;;;;;;;3.58;2.40;;;;;;;;;;5115433;28;20039;-70
2022/07/11 01:17:43;;;;;;;3.85;2.40;;;;;;;;;;5114918;28;20089;-70
2022/07/11 01:20:10;;;;;;;3.45;2.30;;;;;;;;;;5114188;28;20081;-70
2022/07/11 01:22:49;;;;;;;3.38;2.28;;;;;;;;;;5115245;28;20023;-70
2022/07/11 01:25:29;;;;;;;3.97;2.30;;;;;;;;;;5115332;28;20027;-70
2022/07/11 01:27:56;;;;;;;3.53;1.67;;;;;;;;;;5115049;28;20027;-70
2022/07/11 01:30:22;;;;;;;3.63;2.20;;;;;;;;;;5115190;28;20038;-71
2022/07/11 01:32:51;;;;;;;3.15;2.15;;;;;;;;;;5115113;28;20020;-71
2022/07/11 01:35:17;;;;;;;2.63;2.08;;;;;;;;;;5113866;28;20428;-71
2022/07/11 01:37:43;;;;;;;3.30;2.28;;;;;;;;;;5114843;28;20053;-71
2022/07/11 01:40:09;;;;;;;3.33;2.03;;;;;;;;;;5114958;28;20115;-71
2022/07/11 01:42:35;;;;;;;2.33;2.13;;;;;;;;;;5115232;28;20035;-71
2022/07/11 01:45:01;;;;;;;5.15;2.60;;;;;;;;;;5114932;28;20085;-72
2022/07/11 01:47:28;;;;;;;3.42;2.40;;;;;;;;;;5096492;28;20059;-72
2022/07/11 01:49:55;;;;;;;3.30;2.30;;;;;;;;;;5114818;28;20052;-71
2022/07/11 01:52:21;;;;;;;5.82;2.10;;;;;;;;;;5113555;28;20023;-71
2022/07/11 01:54:47;;;;;;;3.88;2.10;;;;;;;;;;5114646;28;20031;-71
2022/07/11 01:57:13;;;;;;;3.05;2.30;;;;;;;;;;5114661;28;20499;-71
2022/07/11 01:59:40;;;;;;;4.38;2.90;;;;;;;;;;5115060;28;20027;-72
2022/07/11 02:02:06;;;;;;;4.85;2.50;;;;;;;;;;5114526;28;20134;-72
2022/07/11 02:04:32;;;;;;;3.03;2.30;;;;;;;;;;5114542;28;20351;-72
2022/07/11 02:06:58;;;;;;;3.80;2.40;;;;;;;;;;5114432;28;20023;-72
2022/07/11 02:09:24;;;;;;;4.43;2.33;;;;;;;;;;5114594;28;20415;-72
2022/07/11 02:11:50;;;;;;;3.33;2.30;;;;;;;;;;5114500;28;20024;-71
2022/07/11 02:14:16;;;;;;;2.67;2.33;;;;;;;;;;5113751;28;20105;-73
2022/07/11 02:16:42;;;;;;;3.13;2.00;;;;;;;;;;5114226;28;20024;-71
2022/07/11 02:19:10;;;;;;;3.65;2.17;;;;;;;;;;5114294;28;20095;-71
2022/07/11 02:21:37;;;;;;;2.88;2.30;;;;;;;;;;5114321;28;20019;-71
2022/07/11 02:24:03;;;;;;;5.97;2.25;;;;;;;;;;5112824;28;20024;-71
2022/07/11 02:26:29;;;;;;;2.58;2.20;;;;;;;;;;5114193;28;20016;-72
2022/07/11 02:28:55;;;;;;;3.40;2.40;;;;;;;;;;5114045;28;20366;-71
2022/07/11 02:31:21;;;;;;;3.85;2.35;;;;;;;;;;5113990;28;20023;-70
2022/07/11 02:33:47;;;;;;;4.53;2.17;;;;;;;;;;5114058;28;20023;-71
2022/07/11 02:36:14;;;;;;;3.15;2.40;;;;;;;;;;5095544;28;20058;-70
2022/07/11 02:38:41;;;;;;;3.45;2.22;;;;;;;;;;5113942;28;20019;-70
2022/07/11 02:41:07;;;;;;;3.67;2.38;;;;;;;;;;5113896;28;20423;-70
2022/07/11 02:43:33;;;;;;;5.50;2.65;;;;;;;;;;5113814;28;20466;-72
2022/07/11 02:45:59;;;;;;;6.53;2.60;;;;;;;;;;5112371;28;20136;-71
2022/07/11 02:48:25;;;;;;;4.45;2.70;;;;;;;;;;5113815;28;20019;-71
2022/07/11 02:50:51;;;;;;;3.38;2.35;;;;;;;;;;5109652;28;20076;-72
2022/07/11 02:53:17;;;;;;;2.63;2.33;;;;;;;;;;5110195;28;20024;-71
2022/07/11 02:55:43;;;;;;;5.38;2.50;;;;;;;;;;5113697;28;20118;-71
2022/07/11 02:58:09;;;;;;;2.70;2.10;;;;;;;;;;5113762;28;20027;-72
2022/07/11 03:00:35;;;;;;;4.15;2.28;;;;;;;;;;5112257;28;20032;-71
2022/07/11 03:03:03;;;;;;;2.58;2.05;;;;;;;;;;5113610;28;20524;-71
2022/07/11 03:05:29;;;;;;;3.20;2.38;;;;;;;;;;5095285;28;20027;-71
2022/07/11 03:07:55;;;;;;;3.15;1.95;;;;;;;;;;5094972;28;20065;-70
2022/07/11 03:10:23;;;;;;;2.33;2.13;;;;;;;;;;5106126;28;20031;-72
2022/07/11 03:12:49;;;;;;;3.63;2.40;;;;;;;;;;5107022;28;20036;-72
2022/07/11 03:15:15;;;;;;;2.95;2.45;;;;;;;;;;5113896;28;20040;-72
2022/07/11 03:17:41;;;;;;;9.10;3.30;;;;;;;;;;5113452;28;20050;-72
2022/07/11 03:20:08;;;;;;;3.85;2.60;;;;;;;;;;5113324;28;20023;-72
2022/07/11 03:22:35;;;;;;;5.13;2.47;;;;;;;;;;5113680;28;20114;-72
2022/07/11 03:25:03;;;;;;;3.17;2.30;;;;;;;;;;5113448;28;20023;-72
2022/07/11 03:27:29;;;;;;;6.50;2.40;;;;;;;;;;5113401;28;20050;-71
2022/07/11 03:29:55;;;;;;;5.57;2.22;;;;;;;;;;5113362;28;20023;-71
2022/07/11 03:32:22;;;;;;;2.85;1.95;;;;;;;;;;5108728;28;20028;-70
2022/07/11 03:37:33;;;;;;;5.88;2.30;;;;;;;;;;5113300;28;20038;-71
2022/07/11 03:39:59;;;;;;;4.53;2.45;;;;;;;;;;5113218;28;20022;-71
2022/07/11 03:42:26;;;;;;;3.70;2.40;;;;;;;;;;5097108;28;20031;-71
2022/07/11 03:44:52;;;;;;;3.45;2.20;;;;;;;;;;5117418;28;20027;-71
2022/07/11 03:47:19;;;;;;;3.80;2.92;;;;;;;;;;5117228;28;20047;-70
2022/07/11 03:49:46;;;;;;;4.45;2.45;;;;;;;;;;5117102;28;20118;-70
2022/07/11 03:52:12;;;;;;;4.07;2.00;;;;;;;;;;5110497;28;20022;-71
2022/07/11 03:54:38;;;;;;;4.00;2.10;;;;;;;;;;5112318;28;20028;-73
2022/07/11 03:57:05;;;;;;;2.92;2.03;;;;;;;;;;5113589;28;20099;-71
2022/07/11 03:59:31;;;;;;;4.75;2.40;;;;;;;;;;5111130;28;20123;-72
2022/07/11 04:01:57;;;;;;;3.30;2.20;;;;;;;;;;5109939;28;20031;-72
2022/07/11 04:04:23;;;;;;;3.47;2.10;;;;;;;;;;5105403;28;20478;-71
2022/07/11 04:06:49;;;;;;;4.30;2.25;;;;;;;;;;5096560;28;20080;-72
2022/07/11 04:09:16;;;;;;;3.95;2.00;;;;;;;;;;5106347;28;20023;-71
2022/07/11 04:11:42;;;;;;;3.15;2.15;;;;;;;;;;5116707;28;20024;-72
2022/07/11 04:14:08;;;;;;;3.08;2.28;;;;;;;;;;5116455;28;20109;-71
2022/07/11 04:16:34;;;;;;;2.88;1.90;;;;;;;;;;5116566;28;20507;-71
2022/07/11 04:19:01;;;;;;;2.10;1.65;;;;;;;;;;5097889;28;20051;-71
2022/07/11 04:21:27;;;;;;;2.47;2.10;;;;;;;;;;5115402;28;20039;-71
2022/07/11 04:23:53;;;;;;;3.35;2.00;;;;;;;;;;5116570;28;20099;-72
2022/07/11 04:26:19;;;;;;;4.50;2.28;;;;;;;;;;5116548;28;20093;-71
2022/07/11 04:28:45;;;;;;;3.95;2.45;;;;;;;;;;5114844;28;20031;-70
2022/07/11 04:31:11;;;;;;;3.45;2.72;;;;;;;;;;5109682;28;20049;-71
2022/07/11 04:33:37;;;;;;;5.60;2.63;;;;;;;;;;5112216;28;20069;-71
2022/07/11 04:36:03;;;;;;;6.95;2.50;;;;;;;;;;5113763;28;20538;-72
2022/07/11 04:38:29;;;;;;;6.60;2.95;;;;;;;;;;5099623;28;20028;-70
2022/07/11 04:40:55;;;;;;;2.50;2.28;;;;;;;;;;5095649;28;20035;-71
2022/07/11 04:43:22;;;;;;;2.65;2.22;;;;;;;;;;5095546;28;20390;-71
2022/07/11 04:45:48;;;;;;;5.20;2.47;;;;;;;;;;5100264;28;20028;-71
2022/07/11 04:48:14;;;;;;;3.85;2.03;;;;;;;;;;5115772;28;20064;-70
2022/07/11 04:50:43;;;;;;;4.65;2.13;;;;;;;;;;5115999;28;20058;-71
2022/07/11 04:53:09;;;;;;;4.65;1.70;;;;;;;;;;5114556;28;20103;-70
2022/07/11 04:55:37;;;;;;;4.15;2.50;;;;;;;;;;5113704;28;20035;-72
2022/07/11 04:58:03;;;;;;;6.15;2.95;;;;;;;;;;5104547;28;20497;-71
2022/07/11 05:00:29;;;;;;;5.28;2.72;;;;;;;;;;5095181;28;20470;-70
2022/07/11 05:02:55;;;;;;;4.13;2.60;;;;;;;;;;5103032;28;20020;-71
2022/07/11 05:05:23;;;;;;;6.30;3.60;;;;;;;;;;5115937;28;20550;-71
2022/07/11 05:07:50;;;;;;;5.78;2.13;;;;;;;;;;5115828;28;20102;-73
2022/07/11 05:10:16;;;;;;;7.53;3.65;;;;;;;;;;5115645;28;20367;-72
2022/07/11 05:12:42;;;;;;;6.90;2.90;;;;;;;;;;5115388;28;20385;-72
2022/07/11 05:15:08;;;;;;;2.15;1.95;;;;;;;;;;5115500;28;20067;-72
2022/07/11 05:17:35;;;;;;;6.57;2.08;;;;;;;;;;5115408;28;20505;-71
2022/07/11 05:20:01;;;;;;;4.43;2.78;;;;;;;;;;5114937;28;20049;-70
2022/07/11 05:22:27;;;;;;;4.93;3.97;;;;;;;;;;5111145;28;20019;-71
2022/07/11 05:24:53;;;;;;;4.97;2.50;;;;;;;;;;5108193;28;20520;-70
2022/07/11 05:27:19;;;;;;;6.07;2.88;;;;;;;;;;5115351;28;20028;-70
2022/07/11 05:29:45;;;;;;;5.95;2.45;;;;;;;;;;5115186;28;20429;-70
2022/07/11 05:32:12;;;;;;;5.90;2.15;;;;;;;;;;5114936;28;20389;-69
2022/07/11 05:34:39;;;;;;;5.07;2.30;;;;;;;;;;5115073;28;20024;-73
2022/07/11 05:37:05;;;;;;;5.60;2.60;;;;;;;;;;5114995;28;20060;-73
2022/07/11 05:39:31;;;;;;;2.83;2.10;;;;;;;;;;5114855;28;20076;-73
2022/07/11 05:41:57;;;;;;;3.28;2.25;;;;;;;;;;5111682;28;20023;-75
2022/07/11 05:44:23;;;;;;;3.83;2.25;;;;;;;;;;5101216;28;20028;-76
2022/07/11 05:46:50;;;;;;;5.13;2.25;;;;;;;;;;5106847;28;20024;-74
2022/07/11 05:49:16;;;;;;;7.10;2.45;;;;;;;;;;5113600;28;20054;-74
2022/07/11 05:51:42;;;;;;;4.15;2.25;;;;;;;;;;5113980;28;20019;-75
2022/07/11 05:54:08;;;;;;;7.90;3.05;;;;;;;;;;5112817;28;20047;-74
2022/07/11 05:56:34;;;;;;;5.47;2.22;;;;;;;;;;5114680;28;20066;-75
2022/07/11 05:59:01;;;;;;;5.45;3.00;;;;;;;;;;5114639;28;20385;-76
2022/07/11 06:01:27;;;;;;;9.80;3.17;;;;;;;;;;5114664;27;20023;-75
2022/07/11 06:03:53;;;;;;;7.68;2.97;;;;;;;;;;5114338;28;20059;-73
2022/07/11 06:06:19;;;;;;;3.78;2.17;;;;;;;;;;5114024;28;20033;-73
2022/07/11 06:08:45;;;;;;;6.55;2.00;;;;;;;;;;5114495;28;20497;-73
2022/07/11 06:11:12;;;;;;;4.22;1.90;;;;;;;;;;5114327;28;20423;-74
2022/07/11 06:13:39;;;;;;;4.50;2.20;;;;;;;;;;5114171;28;20513;-75
2022/07/11 06:16:06;;;;;;;5.03;2.30;;;;;;;;;;5114179;28;20039;-75
2022/07/11 06:18:33;;;;;;;6.97;2.22;;;;;;;;;;5114242;28;20095;-75
2022/07/11 06:20:59;;;;;;;3.83;2.55;;;;;;;;;;5114171;28;20395;-74
2022/07/11 06:23:25;;;;;;;5.22;2.45;;;;;;;;;;5114160;28;20011;-75
2022/07/11 06:25:51;;;;;;;4.45;2.50;;;;;;;;;;5114188;28;20457;-76
2022/07/11 06:28:17;;;;;;;4.90;2.38;;;;;;;;;;5113982;28;20099;-75
2022/07/11 06:30:44;;;;;;;3.00;2.22;;;;;;;;;;5114021;28;20096;-74
2022/07/11 06:33:10;;;;;;;3.75;2.10;;;;;;;;;;5113721;28;20019;-76
2022/07/11 06:35:36;;;;;;;6.50;2.28;;;;;;;;;;5113760;28;20043;-74
2022/07/11 06:38:02;;;;;;;3.58;2.10;;;;;;;;;;5112280;28;20027;-74
2022/07/11 06:40:28;;;;;;;6.38;1.90;;;;;;;;;;5113759;28;20020;-74
2022/07/11 06:42:54;;;;;;;2.97;1.83;;;;;;;;;;5113814;28;20039;-75
2022/07/11 06:45:20;;;;;;;7.28;2.30;;;;;;;;;;5113862;28;20102;-75
2022/07/11 06:47:47;;;;;;;2.50;2.22;;;;;;;;;;5113831;28;20462;-74
2022/07/11 06:50:13;;;;;;;3.33;2.40;;;;;;;;;;5113712;27;20027;-74
2022/07/11 06:52:39;;;;;;;2.63;2.03;;;;;;;;;;5113697;28;20084;-75
2022/07/11 06:55:05;;;;;;;9.65;3.95;;;;;;;;;;5113490;28;20043;-75
2022/07/11 06:57:31;;;;;;;6.15;2.70;;;;;;;;;;5113605;28;20568;-75
2022/07/11 06:59:57;;;;;;;2.45;2.00;;;;;;;;;;5113466;28;20028;-75
2022/07/11 07:02:27;;;;;;;6.50;2.47;;;;;;;;;;5113584;28;20054;-74
2022/07/11 07:04:54;;;;;;;5.63;2.63;;;;;;;;;;5113687;28;20499;-75
2022/07/11 07:07:20;;;;;;;3.72;2.20;;;;;;;;;;5113558;28;20019;-75
2022/07/11 07:09:47;;;;;;;5.13;2.22;;;;;;;;;;5112124;28;20019;-74
2022/07/11 07:12:14;;;;;;;7.35;2.67;;;;;;;;;;5114330;28;20450;-75
2022/07/11 07:14:41;;;;;;;5.00;2.22;;;;;;;;;;5134106;28;20042;-76
2022/07/11 07:17:07;;;;;;;5.38;2.70;;;;;;;;;;5135700;27;20027;-75
2022/07/11 07:19:33;;;;;;;3.25;1.90;;;;;;;;;;5138301;27;20023;-75
2022/07/11 07:21:59;;;;;;;1.88;1.45;;;;;;;;;;5138252;27;20023;-76
2022/07/11 07:24:26;;;;;;;2.88;2.20;;;;;;;;;;5119332;27;20030;-76
2022/07/11 07:26:52;;;;;;;3.30;2.20;;;;;;;;;;5138065;27;20019;-74
2022/07/11 07:29:18;;;;;;;5.82;2.70;;;;;;;;;;5138065;27;20015;-75
2022/07/11 07:31:44;;;;;;;3.83;2.15;;;;;;;;;;5138146;27;20019;-75
2022/07/11 07:34:10;;;;;;;7.20;2.45;;;;;;;;;;5137945;27;20106;-74
2022/07/11 07:36:36;;;;;;;4.85;2.20;;;;;;;;;;5137970;27;20179;-74
2022/07/11 07:39:03;;;;;;;8.70;3.28;;;;;;;;;;5119119;27;20542;-75
2022/07/11 07:41:29;;;;;;;6.43;2.25;;;;;;;;;;5137658;27;20582;-76
2022/07/11 07:43:55;;;;;;;3.92;2.45;;;;;;;;;;5138049;27;20033;-75
2022/07/11 07:46:21;;;;;;;6.78;2.45;;;;;;;;;;5137826;27;20380;-76
2022/07/11 07:48:48;;;;;;;5.05;2.20;;;;;;;;;;5137588;27;20023;-74
2022/07/11 07:51:14;;;;;;;5.97;3.33;;;;;;;;;;5137516;27;20023;-75
2022/07/11 07:53:40;;;;;;;4.97;1.90;;;;;;;;;;5137535;27;20464;-75
2022/07/11 07:56:06;;;;;;;3.85;1.95;;;;;;;;;;5137673;27;20027;-74
2022/07/11 07:58:32;;;;;;;3.72;2.05;;;;;;;;;;5137542;27;20019;-76
2022/07/11 08:03:43;;;;;;;4.35;2.20;;;;;;;;;;5137312;27;20034;-76
2022/07/11 08:06:09;;;;;;;4.05;2.20;;;;;;;;;;5137375;27;20019;-75
2022/07/11 08:08:35;;;;;;;13.77;7.65;;;;;;;;;;5137324;27;20155;-75
2022/07/11 08:11:02;;;;;;;7.65;3.22;;;;;;;;;;5137216;27;20065;-75
2022/07/11 08:13:28;;;;;;;4.10;1.58;;;;;;;;;;5137077;27;20043;-76
2022/07/11 08:15:54;;;;;;;2.88;1.90;;;;;;;;;;5137145;27;20043;-75
2022/07/11 08:18:21;;;;;;;6.55;2.90;;;;;;;;;;5136851;27;20027;-74
2022/07/11 08:20:47;;;;;;;3.72;2.33;;;;;;;;;;5137076;27;20062;-75
2022/07/11 08:23:13;;;;;;;7.65;2.28;;;;;;;;;;5137013;27;20465;-74
2022/07/11 08:25:39;;;;;;;2.45;1.77;;;;;;;;;;5118269;27;20039;-76
2022/07/11 08:28:06;;;;;;;4.05;2.00;;;;;;;;;;5118324;27;20019;-75
2022/07/11 08:30:32;;;;;;;7.45;3.72;;;;;;;;;;5137102;27;20362;-76
2022/07/11 08:32:58;;;;;;;3.63;2.35;;;;;;;;;;5136900;27;20023;-75
2022/07/11 08:35:24;;;;;;;8.65;3.63;;;;;;;;;;5136506;27;20035;-76
2022/07/11 08:37:50;;;;;;;5.85;2.97;;;;;;;;;;5136977;27;20152;-76
2022/07/11 08:40:16;;;;;;;7.05;2.95;;;;;;;;;;5136450;27;20034;-75
2022/07/11 08:42:44;;;;;;;4.18;2.00;;;;;;;;;;5136527;27;20062;-75
2022/07/11 08:45:13;;;;;;;3.00;2.00;;;;;;;;;;5136792;27;20030;-75
2022/07/11 08:47:39;;;;;;;5.03;2.75;;;;;;;;;;5136459;27;20514;-76
2022/07/11 08:50:06;;;;;;;5.10;2.45;;;;;;;;;;5136390;27;20427;-74
2022/07/11 08:52:34;;;;;;;13.88;2.38;;;;;;;;;;5136708;27;20025;-76
2022/07/11 08:55:05;;;;;;;8.05;2.30;;;;;;;;;;5136314;27;20038;-74
2022/07/11 08:57:31;;;;;;;6.10;2.55;;;;;;;;;;5136265;27;20022;-75
2022/07/11 08:59:58;;;;;;;6.63;2.40;;;;;;;;;;5136312;27;20065;-75
2022/07/11 09:02:25;;;;;;;6.60;2.90;;;;;;;;;;5136139;27;20022;-75
2022/07/11 09:04:51;;;;;;;5.10;2.38;;;;;;;;;;5136023;27;20023;-75
2022/07/11 09:07:17;;;;;;;3.35;2.17;;;;;;;;;;5136320;27;20057;-75
2022/07/11 09:09:44;;;;;;;3.63;2.08;;;;;;;;;;5136055;27;20057;-74
2022/07/11 09:12:15;;;;;;;5.57;3.10;;;;;;;;;;5135925;27;20556;-75
2022/07/11 09:14:46;;;;;;;8.77;3.03;;;;;;;;;;5136040;27;20044;-75
2022/07/11 09:17:12;;;;;;;5.57;2.08;;;;;;;;;;5135991;27;20114;-74
2022/07/11 09:19:41;;;;;;;5.88;2.40;;;;;;;;;;5135970;27;20049;-75
2022/07/11 09:27:45;;;;;;;4.28;2.50;;;;;;;;;;5135654;27;20121;-75
2022/07/11 09:30:16;;;;;;;3.15;2.30;;;;;;;;;;5135716;27;20023;-75
2022/07/11 09:32:43;;;;;;;11.23;2.42;;;;;;;;;;5135643;27;20023;-75
2022/07/11 09:35:11;;;;;;;4.47;2.38;;;;;;;;;;5117050;27;20031;-76
2022/07/11 09:37:43;;;;;;;2.38;1.83;;;;;;;;;;5135266;27;20027;-74
2022/07/11 09:40:13;;;;;;;10.80;2.70;;;;;;;;;;5134777;27;20019;-75
2022/07/11 09:42:55;;;;;;;6.22;2.60;;;;;;;;;;5135565;27;20019;-76
2022/07/11 09:45:22;;;;;;;6.43;2.60;;;;;;;;;;5135469;27;20035;-75
2022/07/11 09:47:50;;;;;;;6.03;2.42;;;;;;;;;;5135458;27;20043;-75
2022/07/11 09:50:23;;;;;;;7.75;4.60;;;;;;;;;;5135273;27;20093;-75
2022/07/11 09:53:18;;;;;;;3.08;2.35;;;;;;;;;;5135316;27;20027;-74
2022/07/11 09:55:48;;;;;;;5.10;2.53;;;;;;;;;;5031814;28;20045;-75
2022/07/11 09:58:15;;;;;;;3.22;1.92;;;;;;;;;;5032071;28;20026;-75
2022/07/11 10:00:41;;;;;;;4.82;3.28;;;;;;;;;;5031986;28;20178;-74
2022/07/11 10:03:08;;;;;;;3.67;3.03;;;;;;;;;;5031859;28;20475;-75
2022/07/11 10:05:34;;;;;;;5.05;2.95;;;;;;;;;;5031984;28;20084;-74
2022/07/11 10:08:01;;;;;;;5.15;2.95;;;;;;;;;;5031707;28;20029;-75
2022/07/11 10:10:28;;;;;;;5.65;2.80;;;;;;;;;;5031855;28;20037;-75
2022/07/11 10:12:54;;;;;;;4.47;2.33;;;;;;;;;;5031171;28;20045;-75
2022/07/11 10:15:25;;;;;;;5.63;2.88;;;;;;;;;;5031698;28;20042;-75
2022/07/11 10:18:07;;;;;;;3.28;2.30;;;;;;;;;;5031950;28;20100;-75
2022/07/11 10:20:53;;;;;;;3.40;1.83;;;;;;;;;;5031513;28;20029;-75
2022/07/11 10:23:20;;;;;;;3.83;2.35;;;;;;;;;;5031327;28;20029;-75
2022/07/11 10:25:51;;;;;;;5.43;2.30;;;;;;;;;;5015092;28;20041;-75
2022/07/11 10:28:24;;;;;;;4.25;2.25;;;;;;;;;;5031508;28;20022;-75
2022/07/11 10:30:51;;;;;;;2.88;1.95;;;;;;;;;;5031413;28;20052;-75
2022/07/11 10:33:18;;;;;;;4.40;2.28;;;;;;;;;;5133620;27;20034;-75
2022/07/11 10:35:45;;;;;;;4.35;2.10;;;;;;;;;;5115398;27;20043;-74
2022/07/11 10:38:11;;;;;;;5.30;2.38;;;;;;;;;;5134289;27;20019;-75
2022/07/11 10:40:40;;;;;;;5.38;2.40;;;;;;;;;;5134282;27;20054;-75
2022/07/11 10:43:06;;;;;;;7.97;3.53;;;;;;;;;;5134766;27;20111;-75
2022/07/11 10:45:55;;;;;;;3.78;1.90;;;;;;;;;;5134430;27;20047;-75
2022/07/11 10:48:21;;;;;;;3.20;2.28;;;;;;;;;;5134261;27;20022;-74
2022/07/11 10:50:47;;;;;;;4.80;2.90;;;;;;;;;;5134449;27;20099;-75
2022/07/11 10:53:21;;;;;;;4.65;2.97;;;;;;;;;;5115825;27;20019;-75
2022/07/11 10:55:47;;;;;;;5.53;2.88;;;;;;;;;;5134022;27;20480;-76
2022/07/11 10:58:13;;;;;;;4.13;2.20;;;;;;;;;;5133952;27;20027;-74
2022/07/11 11:00:40;;;;;;;2.70;2.10;;;;;;;;;;5134052;27;20056;-75
2022/07/11 11:03:07;;;;;;;5.07;2.30;;;;;;;;;;5134157;27;20019;-76
2022/07/11 11:05:49;;;;;;;3.05;2.10;;;;;;;;;;5134078;27;20043;-76
2022/07/11 11:08:33;;;;;;;6.03;2.10;;;;;;;;;;5134451;27;20034;-75
2022/07/11 11:11:00;;;;;;;4.32;2.38;;;;;;;;;;5133925;28;20022;-75
2022/07/11 11:13:26;;;;;;;4.05;2.20;;;;;;;;;;5133879;28;20104;-75
2022/07/11 11:15:53;;;;;;;3.80;2.38;;;;;;;;;;5133800;28;20061;-74
2022/07/11 11:18:25;;;;;;;4.47;2.65;;;;;;;;;;5134018;28;20031;-75
2022/07/11 11:21:00;;;;;;;3.25;2.10;;;;;;;;;;5133870;28;20031;-75
2022/07/11 11:23:36;;;;;;;3.08;2.20;;;;;;;;;;5133852;28;20029;-75
2022/07/11 11:26:10;;;;;;;3.50;2.65;;;;;;;;;;5134030;28;20022;-75
2022/07/11 11:28:37;;;;;;;3.60;2.25;;;;;;;;;;5133839;28;20523;-75
2022/07/11 11:31:04;;;;;;;7.38;2.72;;;;;;;;;;5133636;28;20426;-75
2022/07/11 11:33:33;;;;;;;6.00;2.50;;;;;;;;;;5133906;28;20022;-75
2022/07/11 11:36:07;;;;;;;8.10;2.30;;;;;;;;;;5133652;28;20105;-75
2022/07/11 11:38:34;;;;;;;3.92;2.30;;;;;;;;;;5133741;28;20030;-75
2022/07/11 11:41:00;;;;;;;3.13;1.80;;;;;;;;;;5133938;28;20062;-75
2022/07/11 11:43:27;;;;;;;3.10;2.08;;;;;;;;;;5133802;28;20054;-74
2022/07/11 11:45:54;;;;;;;2.15;1.63;;;;;;;;;;5133699;28;20027;-77
2022/07/11 11:48:30;;;;;;;8.07;2.35;;;;;;;;;;5133664;28;20477;-76
2022/07/11 11:51:02;;;;;;;4.25;2.00;;;;;;;;;;5115291;28;20102;-76
2022/07/11 11:53:32;;;;;;;3.20;1.90;;;;;;;;;;5133490;28;20076;-76
2022/07/11 11:55:58;;;;;;;2.33;2.05;;;;;;;;;;5133486;28;20033;-76
2022/07/11 11:58:25;;;;;;;3.58;2.15;;;;;;;;;;5133612;28;20473;-74
2022/07/11 12:00:55;;;;;;;3.53;2.15;;;;;;;;;;5133501;28;20114;-75
2022/07/11 12:03:21;;;;;;;3.17;1.92;;;;;;;;;;5135503;27;20015;-75
2022/07/11 12:05:54;;;;;;;5.53;2.83;;;;;;;;;;5137204;27;20027;-76
2022/07/11 12:08:30;;;;;;;10.80;3.00;;;;;;;;;;5137329;27;20055;-76
2022/07/11 12:10:56;;;;;;;5.07;2.00;;;;;;;;;;5137190;27;20058;-74
2022/07/11 12:13:22;;;;;;;3.15;2.20;;;;;;;;;;5136820;27;20535;-76
2022/07/11 12:18:37;;;;;;;3.42;1.88;;;;;;;;;;5137432;27;20057;-75
2022/07/11 12:21:13;;;;;;;2.47;1.77;;;;;;;;;;5118591;27;20489;-76
2022/07/11 12:23:39;;;;;;;3.83;1.65;;;;;;;;;;5118374;27;20062;-76
2022/07/11 12:26:06;;;;;;;5.60;2.30;;;;;;;;;;5137021;27;20031;-76
2022/07/11 12:28:35;;;;;;;4.75;2.20;;;;;;;;;;5137067;27;20469;-75
2022/07/11 12:31:01;;;;;;;2.58;2.28;;;;;;;;;;5137039;27;20019;-76
2022/07/11 12:33:28;;;;;;;11.30;2.35;;;;;;;;;;5137043;27;20019;-76
2022/07/11 12:35:55;;;;;;;4.78;2.53;;;;;;;;;;5136630;27;20031;-75
2022/07/11 12:38:22;;;;;;;5.50;2.50;;;;;;;;;;5136859;27;20511;-76
2022/07/11 12:40:58;;;;;;;5.18;2.50;;;;;;;;;;5136805;27;20098;-76
2022/07/11 12:46:31;;;;;;;5.45;2.30;;;;;;;;;;5136807;27;20046;-76
2022/07/11 12:48:59;;;;;;;4.60;2.42;;;;;;;;;;5136557;27;20506;-75
2022/07/11 12:51:34;;;;;;;3.00;2.30;;;;;;;;;;5136612;27;20035;-76
2022/07/11 12:54:05;;;;;;;4.85;2.22;;;;;;;;;;5136333;27;20019;-76
2022/07/11 12:56:31;;;;;;;5.15;2.38;;;;;;;;;;5136253;27;20081;-76
2022/07/11 12:58:58;;;;;;;4.63;2.25;;;;;;;;;;5136372;27;20468;-76
2022/07/11 13:01:24;;;;;;;4.13;2.15;;;;;;;;;;5136364;27;20461;-75
2022/07/11 13:03:51;;;;;;;5.47;2.35;;;;;;;;;;5117770;27;20422;-72
2022/07/11 13:06:17;;;;;;;3.15;2.33;;;;;;;;;;5136251;27;20023;-75
2022/07/11 13:08:46;;;;;;;3.58;2.47;;;;;;;;;;5136138;27;20075;-74
2022/07/11 13:11:15;;;;;;;7.13;4.45;;;;;;;;;;5136066;27;20546;-73
2022/07/11 13:13:42;;;;;;;5.18;2.20;;;;;;;;;;5135454;27;20564;-76
2022/07/11 13:16:08;;;;;;;6.10;2.50;;;;;;;;;;5135443;27;20377;-75
2022/07/11 13:18:35;;;;;;;3.38;1.83;;;;;;;;;;5117179;27;20080;-76
2022/07/11 13:21:03;;;;;;;4.47;2.33;;;;;;;;;;5135859;27;20026;-75
2022/07/11 13:23:29;;;;;;;4.20;2.67;;;;;;;;;;5117196;27;20453;-75
2022/07/11 13:25:56;;;;;;;3.20;2.03;;;;;;;;;;5116997;27;20034;-75
2022/07/11 13:28:25;;;;;;;2.08;1.80;;;;;;;;;;5135806;27;20030;-74
2022/07/11 13:30:52;;;;;;;5.13;1.83;;;;;;;;;;5135783;27;20418;-75
2022/07/11 13:33:19;;;;;;;5.53;2.45;;;;;;;;;;5135755;27;20011;-74
2022/07/11 13:35:45;;;;;;;5.03;2.13;;;;;;;;;;5135543;27;20556;-75
2022/07/11 13:38:11;;;;;;;7.05;6.40;;;;;;;;;;5135324;27;20460;-74
2022/07/11 13:40:39;;;;;;;4.53;2.00;;;;;;;;;;5135591;27;20051;-76
2022/07/11 13:43:05;;;;;;;4.07;2.03;;;;;;;;;;5135381;27;20030;-74
2022/07/11 13:45:32;;;;;;;5.00;2.42;;;;;;;;;;5135303;27;20034;-75
2022/07/11 13:47:58;;;;;;;4.22;2.60;;;;;;;;;;5135678;27;20054;-75
2022/07/11 13:50:24;;;;;;;2.30;1.70;;;;;;;;;;5135379;27;20015;-73
2022/07/11 13:52:50;;;;;;;3.95;2.85;;;;;;;;;;5135133;27;20491;-75
2022/07/11 13:55:22;;;;;;;5.03;2.88;;;;;;;;;;5135790;27;20428;-76
2022/07/11 13:57:51;;;;;;;5.65;2.30;;;;;;;;;;5135182;27;20027;-75
2022/07/11 14:00:18;;;;;;;5.22;2.03;;;;;;;;;;5135308;27;20385;-75
2022/07/11 14:02:44;;;;;;;6.93;2.75;;;;;;;;;;5135159;27;20058;-75
2022/07/11 14:05:10;;;;;;;5.57;3.03;;;;;;;;;;5134971;27;20087;-75
2022/07/11 14:07:36;;;;;;;2.33;1.88;;;;;;;;;;5135324;27;20358;-75
2022/07/11 14:10:03;;;;;;;6.72;2.15;;;;;;;;;;5134918;27;20027;-75
2022/07/11 14:12:31;;;;;;;3.60;2.13;;;;;;;;;;5134756;27;20489;-76
2022/07/11 14:14:57;;;;;;;3.17;1.77;;;;;;;;;;5134830;27;20039;-75
2022/07/11 14:17:25;;;;;;;4.82;2.58;;;;;;;;;;5134830;27;20366;-75
2022/07/11 14:19:51;;;;;;;6.15;2.40;;;;;;;;;;5134759;27;20015;-73
2022/07/11 14:22:17;;;;;;;4.93;2.72;;;;;;;;;;5134733;27;20027;-76
2022/07/11 14:24:43;;;;;;;5.15;1.85;;;;;;;;;;5115923;27;20084;-74
2022/07/11 14:27:10;;;;;;;5.32;3.00;;;;;;;;;;5134398;27;20019;-74
2022/07/11 14:29:36;;;;;;;5.18;3.15;;;;;;;;;;5116139;27;20037;-75
2022/07/11 14:32:02;;;;;;;4.00;2.72;;;;;;;;;;5134724;27;20019;-75
2022/07/11 14:34:29;;;;;;;3.10;1.92;;;;;;;;;;5134637;27;20023;-75
2022/07/11 14:36:55;;;;;;;5.18;1.98;;;;;;;;;;5115732;27;20043;-75
2022/07/11 14:39:21;;;;;;;3.22;2.10;;;;;;;;;;5134691;27;20479;-75
2022/07/11 14:41:47;;;;;;;3.72;2.15;;;;;;;;;;5134490;27;20468;-75
2022/07/11 14:44:14;;;;;;;6.40;2.17;;;;;;;;;;5134252;27;20042;-75
2022/07/11 14:46:41;;;;;;;4.07;2.55;;;;;;;;;;5134269;27;20026;-77
2022/07/11 14:49:08;;;;;;;9.40;7.55;;;;;;;;;;5134312;27;20030;-86
2022/07/11 14:51:35;;;;;;;4.15;2.50;;;;;;;;;;5115814;27;20408;-77
2022/07/11 14:54:01;;;;;;;6.63;2.30;;;;;;;;;;5134272;27;20392;-76
2022/07/11 14:56:27;;;;;;;5.93;2.30;;;;;;;;;;5134202;27;20035;-78
2022/07/11 14:58:53;;;;;;;3.92;1.80;;;;;;;;;;5134210;27;20019;-76
2022/07/11 15:01:20;;;;;;;6.15;2.65;;;;;;;;;;5134360;27;20107;-75